Time;durP1;ratioP1;P1;durP2;ratioP2;P2;SDS_P1;SDS_P2;PMS_P1;PMS_P2;Temp;Humidity;BMP_temperature;BMP_pressure;BME280_temperature;BME280_humidity;BME280_pressure;Samples;Min_cycle;Max_cycle;Signal;HPM_P1;HPM_P2
2022/03/19 00:00:17;;;;;;;14.43;6.25;;;7.50;99.90;;;;;;5009866;28;20029;-88
2022/03/19 00:02:43;;;;;;;13.75;6.95;;;7.40;99.90;;;;;;5020916;28;20084;-89
2022/03/19 00:05:09;;;;;;;18.88;7.00;;;7.40;99.90;;;;;;5021775;28;20038;-87
2022/03/19 00:07:41;;;;;;;17.40;7.53;;;7.40;99.90;;;;;;5020999;28;20032;-88
2022/03/19 00:10:08;;;;;;;14.00;6.95;;;7.30;99.90;;;;;;5006835;28;20127;-88
2022/03/19 00:12:35;;;;;;;16.88;7.07;;;7.30;99.90;;;;;;5020476;28;20088;-87
2022/03/19 00:15:01;;;;;;;17.30;7.78;;;7.30;99.90;;;;;;5002720;28;20587;-88
2022/03/19 00:17:26;;;;;;;18.23;6.80;;;7.30;99.90;;;;;;5006558;28;20045;-88
2022/03/19 00:19:52;;;;;;;19.08;6.68;;;7.30;99.90;;;;;;5004806;28;20422;-88
2022/03/19 00:22:17;;;;;;;11.73;6.38;;;7.20;99.90;;;;;;5006117;28;20030;-88
2022/03/19 00:24:43;;;;;;;17.45;6.35;;;7.20;99.90;;;;;;5002907;28;20057;-88
2022/03/19 00:27:08;;;;;;;17.95;7.22;;;7.20;99.90;;;;;;5021385;28;20068;-89
2022/03/19 00:29:34;;;;;;;15.13;6.63;;;7.10;99.90;;;;;;5007003;28;20030;-88
2022/03/19 00:32:00;;;;;;;17.95;6.47;;;7.10;99.90;;;;;;5020201;28;20029;-88
2022/03/19 00:34:25;;;;;;;15.93;6.55;;;7.00;99.90;;;;;;5021629;28;20044;-88
2022/03/19 00:36:51;;;;;;;14.27;6.85;;;7.10;99.90;;;;;;5019129;28;20224;-89
2022/03/19 00:39:17;;;;;;;20.80;6.03;;;7.10;99.90;;;;;;5005386;28;20040;-89
2022/03/19 00:41:42;;;;;;;15.90;6.22;;;7.00;99.90;;;;;;5006788;28;20049;-88
2022/03/19 00:44:08;;;;;;;23.05;6.80;;;7.00;99.90;;;;;;5017454;28;20056;-89
2022/03/19 00:46:33;;;;;;;13.50;6.25;;;7.00;99.90;;;;;;5007002;28;20501;-88
2022/03/19 00:49:02;;;;;;;19.08;6.55;;;6.90;99.90;;;;;;5018400;28;20117;-88
2022/03/19 00:51:27;;;;;;;16.27;6.40;;;6.90;99.90;;;;;;5007783;28;20025;-88
2022/03/19 00:53:53;;;;;;;11.90;5.72;;;6.90;99.90;;;;;;5006194;28;21575;-88
2022/03/19 00:56:18;;;;;;;16.08;5.90;;;6.80;99.90;;;;;;5003428;28;20526;-88
2022/03/19 00:58:44;;;;;;;16.85;6.95;;;6.80;99.90;;;;;;5006065;28;20064;-87
2022/03/19 01:01:09;;;;;;;15.88;6.10;;;6.80;99.90;;;;;;5014665;28;20057;-89
2022/03/19 01:03:35;;;;;;;13.57;6.05;;;6.70;99.90;;;;;;5005141;28;20037;-88
2022/03/19 01:06:00;;;;;;;13.48;5.80;;;6.70;99.90;;;;;;5020294;28;20112;-88
2022/03/19 01:08:26;;;;;;;25.23;6.78;;;6.70;99.90;;;;;;5019019;28;20045;-88
2022/03/19 01:10:52;;;;;;;17.33;7.00;;;6.70;99.90;;;;;;5011513;28;20072;-88
2022/03/19 01:13:18;;;;;;;21.00;6.18;;;6.70;99.90;;;;;;5017097;28;21785;-89
2022/03/19 01:15:43;;;;;;;13.77;6.40;;;6.70;99.90;;;;;;5017132;28;20489;-88
2022/03/19 01:18:09;;;;;;;17.13;6.70;;;6.70;99.90;;;;;;5016043;28;20072;-88
2022/03/19 01:20:34;;;;;;;13.40;5.95;;;6.70;99.90;;;;;;5018827;28;20033;-88
2022/03/19 01:23:00;;;;;;;17.70;6.07;;;6.60;99.90;;;;;;5019269;28;20160;-88
2022/03/19 01:25:26;;;;;;;15.35;5.75;;;6.60;99.90;;;;;;5012204;28;20071;-88
2022/03/19 01:27:52;;;;;;;18.83;6.50;;;6.50;99.90;;;;;;5009286;28;20081;-89
2022/03/19 01:30:19;;;;;;;10.82;4.78;;;6.50;99.90;;;;;;5024784;28;20409;-89
2022/03/19 01:32:46;;;;;;;16.73;5.32;;;6.50;99.90;;;;;;5005567;28;20026;-89
2022/03/19 01:35:13;;;;;;;16.92;6.13;;;6.50;99.90;;;;;;5017271;28;20037;-88
2022/03/19 01:37:39;;;;;;;19.77;4.80;;;6.40;99.90;;;;;;5016256;28;20042;-88
2022/03/19 01:40:07;;;;;;;17.70;5.47;;;6.40;99.90;;;;;;5005947;28;20782;-89
2022/03/19 01:42:35;;;;;;;18.35;5.85;;;6.40;99.90;;;;;;5002666;28;20125;-89
2022/03/19 01:45:01;;;;;;;15.13;5.07;;;6.40;99.90;;;;;;5001263;28;20044;-88
2022/03/19 01:47:28;;;;;;;13.05;5.43;;;6.30;99.90;;;;;;5003360;28;20030;-88
2022/03/19 01:49:55;;;;;;;14.43;4.68;;;6.30;99.90;;;;;;5002909;28;20490;-89
2022/03/19 01:52:21;;;;;;;18.52;7.13;;;6.30;99.90;;;;;;5017205;28;20073;-86
2022/03/19 01:54:49;;;;;;;16.00;5.30;;;6.30;99.90;;;;;;5016330;28;20508;-89
2022/03/19 01:57:17;;;;;;;24.00;5.97;;;6.20;99.90;;;;;;5004819;28;20041;-88
2022/03/19 01:59:43;;;;;;;17.60;6.50;;;6.20;99.90;;;;;;5018282;28;20390;-89
2022/03/19 02:02:11;;;;;;;14.43;5.60;;;6.20;99.90;;;;;;5013381;28;20247;-88
2022/03/19 02:04:38;;;;;;;17.20;6.40;;;6.20;99.90;;;;;;5015171;28;20026;-88
2022/03/19 02:07:07;;;;;;;20.83;5.85;;;6.20;99.90;;;;;;5017444;28;20030;-87
2022/03/19 02:09:33;;;;;;;13.85;4.75;;;6.10;99.90;;;;;;5014410;28;20127;-89
2022/03/19 02:11:59;;;;;;;17.92;6.03;;;6.10;99.90;;;;;;5003624;28;20046;-89
2022/03/19 02:14:25;;;;;;;18.20;6.03;;;6.10;99.90;;;;;;5002750;28;20026;-89
2022/03/19 02:16:51;;;;;;;15.50;6.65;;;6.10;99.90;;;;;;5017614;28;20037;-89
2022/03/19 02:19:16;;;;;;;22.50;7.15;;;6.10;99.90;;;;;;5001108;28;20030;-87
2022/03/19 02:21:47;;;;;;;18.05;6.60;;;6.10;99.90;;;;;;5017649;28;20037;-88
2022/03/19 02:26:59;;;;;;;15.85;6.70;;;6.00;99.90;;;;;;5003420;28;20048;-88
2022/03/19 02:29:25;;;;;;;22.13;6.70;;;6.00;99.90;;;;;;5018535;28;20022;-89
2022/03/19 02:31:54;;;;;;;18.95;6.20;;;5.90;99.90;;;;;;5013755;28;20363;-88
2022/03/19 02:34:20;;;;;;;20.60;7.28;;;5.90;99.90;;;;;;5004699;28;20033;-88
2022/03/19 02:36:46;;;;;;;17.15;6.28;;;5.90;99.90;;;;;;5004900;28;20030;-88
2022/03/19 02:39:38;;;;;;;23.75;7.57;;;5.90;99.90;;;;;;5021852;28;20037;-89
2022/03/19 02:42:05;;;;;;;18.40;6.38;;;5.80;99.90;;;;;;5002143;28;20038;-88
2022/03/19 02:44:31;;;;;;;22.95;7.28;;;5.80;99.90;;;;;;5009354;28;21943;-88
2022/03/19 02:47:00;;;;;;;20.75;6.88;;;5.80;99.90;;;;;;5010727;28;20026;-88
2022/03/19 02:49:26;;;;;;;20.95;6.57;;;5.80;99.90;;;;;;5007424;28;20034;-89
2022/03/19 02:51:53;;;;;;;21.45;6.82;;;5.70;99.90;;;;;;5006556;28;20038;-89
2022/03/19 02:54:21;;;;;;;23.40;9.05;;;5.70;99.90;;;;;;5017779;28;20034;-88
2022/03/19 02:56:47;;;;;;;22.17;7.40;;;5.70;99.90;;;;;;5005527;28;20037;-89
2022/03/19 02:59:22;;;;;;;21.38;7.90;;;5.70;99.90;;;;;;5007309;28;20563;-89
2022/03/19 03:01:52;;;;;;;17.77;7.43;;;5.70;99.90;;;;;;5008060;28;20034;-89
2022/03/19 03:04:18;;;;;;;22.60;7.57;;;5.70;99.90;;;;;;5019957;28;20025;-89
2022/03/19 03:06:46;;;;;;;20.42;7.10;;;5.70;99.90;;;;;;5007825;28;20045;-88
2022/03/19 03:09:12;;;;;;;21.88;7.90;;;5.70;99.90;;;;;;5006844;28;20413;-89
2022/03/19 03:11:39;;;;;;;25.83;7.45;;;5.70;99.90;;;;;;5019017;28;20172;-89
2022/03/19 03:14:06;;;;;;;18.00;7.50;;;5.70;99.90;;;;;;5006301;28;20026;-89
2022/03/19 03:16:32;;;;;;;23.55;8.77;;;5.70;99.90;;;;;;5005402;28;20030;-89
2022/03/19 03:19:01;;;;;;;23.10;6.90;;;5.60;99.90;;;;;;5004704;28;20053;-86
2022/03/19 03:21:27;;;;;;;26.33;9.23;;;5.60;99.90;;;;;;5005468;28;20022;-89
2022/03/19 03:23:56;;;;;;;23.88;7.97;;;5.60;99.90;;;;;;5004798;28;20034;-87
2022/03/19 03:26:22;;;;;;;23.70;8.18;;;5.60;99.90;;;;;;5005766;28;20033;-87
2022/03/19 03:28:48;;;;;;;15.77;7.10;;;5.60;99.90;;;;;;5003982;28;20040;-85
2022/03/19 03:31:13;;;;;;;23.67;7.65;;;5.60;99.90;;;;;;5020766;28;20951;-87
2022/03/19 03:33:39;;;;;;;24.33;8.52;;;5.50;99.90;;;;;;5006457;28;20044;-86
2022/03/19 03:36:05;;;;;;;25.58;6.70;;;5.50;99.90;;;;;;5006391;28;20030;-87
2022/03/19 03:38:30;;;;;;;30.27;8.55;;;5.50;99.90;;;;;;5005380;28;20160;-87
2022/03/19 03:40:56;;;;;;;29.00;8.25;;;5.40;99.90;;;;;;5019001;28;20126;-87
2022/03/19 03:43:21;;;;;;;21.23;6.68;;;5.40;99.90;;;;;;5022823;28;20032;-87
2022/03/19 03:45:47;;;;;;;20.85;7.90;;;5.40;99.90;;;;;;5005843;28;20121;-87
2022/03/19 03:48:13;;;;;;;21.45;7.07;;;5.30;99.90;;;;;;5007165;28;20034;-88
2022/03/19 03:50:39;;;;;;;21.05;7.78;;;5.30;99.90;;;;;;5020167;28;20037;-88
2022/03/19 03:53:05;;;;;;;23.27;8.32;;;5.30;99.90;;;;;;5007882;28;20955;-87
2022/03/19 03:55:32;;;;;;;22.42;7.97;;;5.20;99.90;;;;;;5006211;28;20038;-87
2022/03/19 03:57:59;;;;;;;27.27;8.55;;;5.20;99.90;;;;;;5021137;28;20041;-88
2022/03/19 04:00:25;;;;;;;29.98;8.50;;;5.10;99.90;;;;;;5005656;28;20056;-87
2022/03/19 04:02:51;;;;;;;23.00;7.97;;;5.10;99.90;;;;;;5021751;28;20037;-88
2022/03/19 04:05:17;;;;;;;25.52;7.72;;;5.10;99.90;;;;;;5020378;28;20026;-88
2022/03/19 04:07:43;;;;;;;22.45;7.63;;;5.10;99.90;;;;;;5016260;28;20033;-88
2022/03/19 04:10:08;;;;;;;19.67;7.55;;;5.00;99.90;;;;;;5005743;28;20117;-87
2022/03/19 04:12:35;;;;;;;21.77;8.02;;;5.10;99.90;;;;;;5019294;28;20510;-88
2022/03/19 04:15:01;;;;;;;21.85;7.80;;;5.00;99.90;;;;;;5003268;28;20048;-87
2022/03/19 04:17:26;;;;;;;29.83;8.90;;;5.00;99.90;;;;;;5007028;28;20033;-87
2022/03/19 04:19:52;;;;;;;27.48;9.05;;;5.00;99.90;;;;;;5002503;28;20034;-87
2022/03/19 04:22:17;;;;;;;22.33;8.93;;;4.90;99.90;;;;;;5002719;28;20057;-87
2022/03/19 04:24:43;;;;;;;31.27;7.65;;;4.90;99.90;;;;;;5016842;28;20146;-87
2022/03/19 04:27:10;;;;;;;27.95;8.15;;;4.90;99.90;;;;;;5017292;28;20486;-87
2022/03/19 04:29:36;;;;;;;15.95;7.63;;;4.90;99.90;;;;;;5018214;28;20481;-87
2022/03/19 04:32:02;;;;;;;26.38;8.02;;;4.80;99.90;;;;;;5018387;28;20088;-87
2022/03/19 04:34:27;;;;;;;24.52;7.82;;;4.80;99.90;;;;;;5019829;28;20746;-88
2022/03/19 04:36:53;;;;;;;19.25;7.45;;;4.80;99.90;;;;;;5002293;28;20042;-87
2022/03/19 04:39:19;;;;;;;23.50;9.18;;;4.80;99.90;;;;;;5003414;28;20506;-87
2022/03/19 04:41:44;;;;;;;27.92;9.25;;;4.70;99.90;;;;;;5018224;28;20498;-87
2022/03/19 04:44:10;;;;;;;24.77;7.82;;;4.70;99.90;;;;;;5008137;28;20030;-87
2022/03/19 04:46:36;;;;;;;27.10;9.55;;;4.60;99.90;;;;;;5004606;28;20500;-87
2022/03/19 04:49:02;;;;;;;23.05;8.65;;;4.70;99.90;;;;;;5017633;28;20103;-88
2022/03/19 04:51:32;;;;;;;20.83;8.57;;;4.60;99.90;;;;;;5019669;28;20537;-88
2022/03/19 04:53:57;;;;;;;26.92;8.85;;;4.60;99.90;;;;;;5002894;28;20034;-88
2022/03/19 04:56:25;;;;;;;26.02;9.75;;;4.60;99.90;;;;;;5003686;28;20705;-88
2022/03/19 04:58:52;;;;;;;20.92;8.32;;;4.60;99.90;;;;;;5017248;28;20037;-88
2022/03/19 05:01:18;;;;;;;23.52;8.48;;;4.60;99.90;;;;;;5004691;28;20493;-88
2022/03/19 05:03:44;;;;;;;27.05;9.40;;;4.50;99.90;;;;;;5004660;28;20029;-87
2022/03/19 05:06:10;;;;;;;31.35;10.13;;;4.50;99.90;;;;;;5016016;28;20038;-88
2022/03/19 05:08:35;;;;;;;22.13;8.52;;;4.50;99.90;;;;;;5005997;28;20105;-88
2022/03/19 05:11:13;;;;;;;22.35;8.50;;;4.40;99.90;;;;;;5003480;28;20034;-89
2022/03/19 05:13:48;;;;;;;21.67;8.77;;;4.40;99.90;;;;;;5014742;28;20422;-87
2022/03/19 05:16:15;;;;;;;21.92;8.98;;;4.40;99.90;;;;;;5018576;28;20450;-88
2022/03/19 05:18:41;;;;;;;18.67;9.02;;;4.40;99.90;;;;;;5001603;28;20894;-88
2022/03/19 05:21:06;;;;;;;19.63;8.68;;;4.40;99.90;;;;;;5000363;28;20018;-88
2022/03/19 05:23:36;;;;;;;20.80;8.98;;;4.40;99.90;;;;;;5006438;28;20040;-88
2022/03/19 05:26:02;;;;;;;24.35;8.93;;;4.30;99.90;;;;;;5004846;28;20227;-88
2022/03/19 05:28:28;;;;;;;25.05;10.05;;;4.30;99.90;;;;;;5004112;28;20030;-88
2022/03/19 05:30:54;;;;;;;31.13;10.27;;;4.30;99.90;;;;;;5016028;28;20025;-88
2022/03/19 05:34:29;;;;;;;22.63;10.07;;;4.40;99.90;;;;;;5017457;28;20484;-87
2022/03/19 05:36:05;;;;;;;24.67;10.27;;;4.40;99.90;;;;;;5002001;28;20029;-88
2022/03/19 05:38:31;;;;;;;28.95;11.40;;;4.30;99.90;;;;;;4999842;28;20046;-88
2022/03/19 05:40:56;;;;;;;22.85;9.35;;;4.40;99.90;;;;;;5002958;28;20038;-88
2022/03/19 05:43:22;;;;;;;30.88;10.63;;;4.40;99.90;;;;;;5017753;28;20390;-88
2022/03/19 05:45:47;;;;;;;26.98;10.48;;;4.40;99.90;;;;;;5004624;28;20482;-89
2022/03/19 05:48:13;;;;;;;26.48;11.18;;;4.40;99.90;;;;;;5003989;28;20137;-89
2022/03/19 05:50:38;;;;;;;24.40;10.90;;;4.40;99.90;;;;;;5004550;28;20397;-88
2022/03/19 05:53:04;;;;;;;26.33;10.88;;;4.40;99.90;;;;;;5015994;28;20397;-89
2022/03/19 05:55:30;;;;;;;27.55;10.20;;;4.40;99.90;;;;;;5016169;28;20030;-89
2022/03/19 05:57:55;;;;;;;28.17;10.45;;;4.40;99.90;;;;;;5014854;28;20134;-89
2022/03/19 06:00:21;;;;;;;22.00;10.68;;;4.40;99.90;;;;;;5016497;28;20108;-89
2022/03/19 06:02:46;;;;;;;26.02;10.43;;;4.40;99.90;;;;;;5018199;28;20095;-89
2022/03/19 06:05:12;;;;;;;25.70;11.07;;;4.50;99.90;;;;;;5023038;28;20470;-90
2022/03/19 06:07:38;;;;;;;28.98;11.48;;;4.50;99.90;;;;;;5021044;28;20030;-90
2022/03/19 06:10:05;;;;;;;19.73;10.55;;;4.50;99.90;;;;;;5002173;28;20505;-89
2022/03/19 06:12:30;;;;;;;27.60;11.00;;;4.50;99.90;;;;;;5005997;28;20129;-90
2022/03/19 06:14:56;;;;;;;25.63;11.45;;;4.60;99.90;;;;;;5006109;28;20125;-90
2022/03/19 06:17:22;;;;;;;23.92;10.15;;;4.60;99.90;;;;;;5018307;28;20030;-89
2022/03/19 06:19:47;;;;;;;25.60;10.90;;;4.60;99.90;;;;;;5005939;28;20058;-90
2022/03/19 06:22:13;;;;;;;22.67;10.07;;;4.60;99.90;;;;;;5023624;28;20041;-89
2022/03/19 06:24:39;;;;;;;26.33;11.05;;;4.70;99.90;;;;;;5017338;28;20561;-90
2022/03/19 06:27:04;;;;;;;24.30;10.45;;;4.70;99.90;;;;;;5006865;28;20025;-90
2022/03/19 06:29:30;;;;;;;25.70;10.30;;;4.80;99.90;;;;;;5005731;28;20032;-89
2022/03/19 06:31:56;;;;;;;27.55;10.43;;;4.80;99.90;;;;;;5005852;28;20030;-91
2022/03/19 06:34:22;;;;;;;27.40;11.48;;;4.80;99.90;;;;;;5020288;28;20077;-89
2022/03/19 06:39:31;;;;;;;26.13;10.68;;;4.90;99.90;;;;;;5006887;28;20113;-90
2022/03/19 06:41:57;;;;;;;21.95;8.73;;;5.00;99.90;;;;;;5015467;28;20121;-91
2022/03/19 06:44:23;;;;;;;22.27;10.40;;;5.00;99.90;;;;;;5020100;28;20081;-90
2022/03/19 06:46:48;;;;;;;23.33;9.52;;;5.00;99.90;;;;;;5019094;28;20038;-89
2022/03/19 06:49:14;;;;;;;22.30;9.55;;;5.10;99.90;;;;;;5019247;28;20058;-89
2022/03/19 06:51:40;;;;;;;25.80;10.05;;;5.20;99.90;;;;;;5019602;28;20125;-90
2022/03/19 06:54:05;;;;;;;19.67;9.80;;;5.20;99.90;;;;;;5004967;28;20397;-89
2022/03/19 06:56:32;;;;;;;23.38;9.55;;;5.20;99.90;;;;;;5005563;28;20026;-90
2022/03/19 06:58:57;;;;;;;24.40;9.60;;;5.30;99.90;;;;;;5017838;28;20052;-90
2022/03/19 07:01:23;;;;;;;28.48;9.75;;;5.40;99.90;;;;;;5017106;28;20030;-90
2022/03/19 07:03:48;;;;;;;17.70;9.35;;;5.40;99.90;;;;;;5018310;28;20038;-88
2022/03/19 07:06:15;;;;;;;27.08;8.70;;;5.50;99.90;;;;;;5002924;28;20021;-90
2022/03/19 07:08:41;;;;;;;21.15;7.78;;;5.50;99.90;;;;;;5000940;28;20041;-88
2022/03/19 07:11:07;;;;;;;21.20;7.80;;;5.60;99.90;;;;;;5010548;28;20021;-90
2022/03/19 07:13:32;;;;;;;19.75;8.23;;;5.70;99.90;;;;;;5012512;28;20108;-89
2022/03/19 07:15:58;;;;;;;19.73;8.23;;;5.80;99.90;;;;;;5013386;28;20084;-89
2022/03/19 07:18:24;;;;;;;19.67;6.70;;;5.90;99.90;;;;;;5024898;28;20038;-89
2022/03/19 07:20:50;;;;;;;19.17;7.32;;;5.90;99.90;;;;;;5013099;28;20478;-89
2022/03/19 07:23:16;;;;;;;15.98;7.25;;;6.00;99.90;;;;;;5012672;28;20431;-90
2022/03/19 07:25:43;;;;;;;18.85;8.48;;;6.10;99.90;;;;;;5030720;28;20030;-96
2022/03/19 07:28:14;;;;;;;17.83;7.25;;;6.10;99.90;;;;;;5030267;23;20128;-80
2022/03/19 07:30:41;;;;;;;20.27;7.22;;;6.20;99.90;;;;;;4991585;28;20074;-78
2022/03/19 07:33:07;;;;;;;16.80;7.47;;;6.30;99.90;;;;;;4990708;28;20156;-79
2022/03/19 07:35:32;;;;;;;16.50;7.25;;;6.40;99.90;;;;;;4986488;28;20445;-78
2022/03/19 07:37:58;;;;;;;14.52;6.30;;;6.50;99.90;;;;;;4989349;28;20042;-78
2022/03/19 07:43:12;;;;;;;14.88;6.25;;;6.60;99.90;;;;;;4990038;28;20029;-79
2022/03/19 07:45:39;;;;;;;17.30;6.70;;;6.70;99.90;;;;;;4993000;28;20367;-80
2022/03/19 07:48:05;;;;;;;16.00;6.80;;;6.80;99.90;;;;;;4989039;28;20037;-80
2022/03/19 07:50:31;;;;;;;13.10;5.95;;;6.90;99.90;;;;;;4990825;28;20513;-80
2022/03/19 07:52:57;;;;;;;15.18;5.78;;;7.00;99.90;;;;;;4990053;28;20034;-80
2022/03/19 07:55:24;;;;;;;15.52;5.50;;;7.00;99.90;;;;;;4991376;28;20022;-80
2022/03/19 07:57:51;;;;;;;17.35;5.10;;;7.10;99.90;;;;;;4991573;28;20054;-81
2022/03/19 08:00:16;;;;;;;13.65;5.38;;;7.20;99.90;;;;;;4988508;28;20022;-79
2022/03/19 08:02:43;;;;;;;15.07;5.15;;;7.30;99.90;;;;;;4989170;28;20027;-79
2022/03/19 08:05:09;;;;;;;11.35;4.82;;;7.40;99.90;;;;;;4990171;28;20073;-79
2022/03/19 08:07:37;;;;;;;14.70;5.03;;;7.50;99.90;;;;;;4985623;28;20062;-80
2022/03/19 08:10:07;;;;;;;15.40;5.45;;;7.60;99.90;;;;;;4977488;28;20490;-79
2022/03/19 08:12:33;;;;;;;13.85;4.95;;;7.70;99.90;;;;;;4977743;28;20508;-79
2022/03/19 08:14:59;;;;;;;16.20;5.30;;;7.70;99.90;;;;;;4978106;28;20367;-80
2022/03/19 08:17:28;;;;;;;18.25;5.15;;;7.80;99.90;;;;;;4989345;28;20033;-80
2022/03/19 08:19:57;;;;;;;13.73;4.75;;;7.90;99.90;;;;;;4987349;28;20117;-80
2022/03/19 08:22:23;;;;;;;12.57;4.75;;;8.00;99.90;;;;;;4979641;28;20101;-81
2022/03/19 08:24:49;;;;;;;16.20;4.43;;;8.10;99.90;;;;;;4980141;28;20575;-81
2022/03/19 08:27:14;;;;;;;10.10;3.45;;;8.20;99.90;;;;;;4988028;28;20050;-81
2022/03/19 08:29:40;;;;;;;10.60;3.40;;;8.20;99.90;;;;;;4992337;28;20101;-80
2022/03/19 08:32:08;;;;;;;13.20;4.38;;;8.30;99.90;;;;;;4993047;28;20038;-81
2022/03/19 08:34:34;;;;;;;12.40;4.38;;;8.40;99.90;;;;;;4986420;28;20402;-82
2022/03/19 08:36:59;;;;;;;12.48;4.07;;;8.50;99.90;;;;;;4980832;28;20049;-81
2022/03/19 08:42:09;;;;;;;17.08;4.38;;;8.70;99.90;;;;;;4986821;28;20461;-81
2022/03/19 08:44:37;;;;;;;15.07;4.07;;;8.80;99.90;;;;;;4981542;28;20054;-81
2022/03/19 08:47:03;;;;;;;16.95;4.40;;;8.90;99.90;;;;;;4988139;28;20041;-81
2022/03/19 08:49:28;;;;;;;13.27;3.70;;;9.00;99.90;;;;;;4987022;28;20030;-81
2022/03/19 08:51:54;;;;;;;9.05;3.50;;;9.10;99.90;;;;;;4996390;28;20102;-81
2022/03/19 08:54:20;;;;;;;11.27;4.00;;;9.20;99.90;;;;;;4997381;28;20034;-81
2022/03/19 08:56:48;;;;;;;11.45;3.78;;;9.30;99.90;;;;;;4979841;28;20039;-80
2022/03/19 08:59:16;;;;;;;11.07;3.72;;;9.30;99.90;;;;;;4988187;28;20026;-81
2022/03/19 09:01:42;;;;;;;14.15;3.38;;;9.40;99.90;;;;;;4981137;28;20785;-81
2022/03/19 09:04:08;;;;;;;13.73;4.25;;;9.50;99.90;;;;;;4984421;28;20113;-82
2022/03/19 09:06:34;;;;;;;15.35;5.18;;;9.60;99.90;;;;;;4981628;28;20478;-81
2022/03/19 09:09:02;;;;;;;14.38;4.65;;;9.70;99.90;;;;;;4984014;28;20469;-81
2022/03/19 09:11:29;;;;;;;9.65;3.28;;;9.80;99.90;;;;;;4985711;28;20030;-83
2022/03/19 09:13:54;;;;;;;11.55;3.00;;;9.90;99.90;;;;;;4982758;28;20386;-80
2022/03/19 09:16:20;;;;;;;13.70;4.18;;;9.90;99.90;;;;;;5002455;28;20030;-80
2022/03/19 09:18:47;;;;;;;16.02;3.95;;;9.90;99.90;;;;;;4983916;28;20109;-79
2022/03/19 09:21:13;;;;;;;11.95;3.90;;;10.00;99.90;;;;;;4980612;28;20032;-81
2022/03/19 09:23:39;;;;;;;17.35;3.90;;;10.00;99.90;;;;;;4988814;28;20481;-81
2022/03/19 09:26:04;;;;;;;9.48;2.53;;;10.10;99.60;;;;;;4984596;28;20019;-79
2022/03/19 09:28:30;;;;;;;9.45;3.75;;;10.10;99.90;;;;;;5001198;28;20054;-80
2022/03/19 09:30:55;;;;;;;12.57;3.30;;;10.30;99.60;;;;;;4982869;28;20034;-81
2022/03/19 09:33:21;;;;;;;9.45;3.05;;;10.30;98.60;;;;;;4986575;28;20394;-81
2022/03/19 09:35:47;;;;;;;14.10;3.63;;;10.30;97.80;;;;;;4984610;28;20033;-81
2022/03/19 09:38:17;;;;;;;13.65;2.88;;;10.40;98.20;;;;;;4976655;28;20041;-80
2022/03/19 09:40:43;;;;;;;8.25;2.85;;;10.50;98.10;;;;;;4977259;28;20080;-79
2022/03/19 09:43:09;;;;;;;9.60;2.53;;;10.60;97.10;;;;;;4981056;28;20039;-81
2022/03/19 09:45:38;;;;;;;8.90;2.53;;;10.80;97.20;;;;;;4987050;28;20022;-80
2022/03/19 09:48:04;;;;;;;7.82;1.90;;;10.80;94.70;;;;;;4980520;28;20112;-80
2022/03/19 09:50:30;;;;;;;9.25;1.95;;;10.90;93.60;;;;;;4986755;28;20026;-81
2022/03/19 09:53:00;;;;;;;8.32;2.10;;;11.00;93.00;;;;;;4987225;28;20447;-81
2022/03/19 09:55:26;;;;;;;7.05;1.63;;;11.00;90.40;;;;;;4985609;28;20027;-80
2022/03/19 09:57:55;;;;;;;6.47;1.48;;;11.00;87.50;;;;;;4982772;28;21575;-81
2022/03/19 10:00:22;;;;;;;9.45;1.20;;;11.20;87.90;;;;;;4974008;28;20027;-81
2022/03/19 10:02:56;;;;;;;8.27;1.67;;;11.20;81.90;;;;;;4980087;28;20145;-81
2022/03/19 10:10:56;;;;;;;7.85;1.35;;;11.20;76.80;;;;;;4979547;28;20048;-80
2022/03/19 10:13:24;;;;;;;6.53;1.23;;;11.30;74.10;;;;;;4977682;28;20037;-81
2022/03/19 10:15:50;;;;;;;7.28;1.20;;;11.30;74.00;;;;;;4976099;28;20030;-83
2022/03/19 10:18:15;;;;;;;6.38;0.95;;;11.40;72.30;;;;;;4986643;28;20810;-83
2022/03/19 10:20:42;;;;;;;6.85;1.30;;;11.40;71.10;;;;;;4981266;28;20073;-82
2022/03/19 10:23:07;;;;;;;5.20;1.02;;;11.40;70.60;;;;;;4981526;28;20085;-82
2022/03/19 10:25:33;;;;;;;6.75;1.08;;;11.50;72.20;;;;;;4975260;28;20449;-83
2022/03/19 10:28:01;;;;;;;6.07;1.00;;;11.60;70.00;;;;;;4969779;28;20132;-82
2022/03/19 10:30:38;;;;;;;6.18;0.98;;;11.70;70.90;;;;;;4975065;28;20466;-84
2022/03/19 10:33:08;;;;;;;7.00;0.95;;;11.80;70.10;;;;;;4988276;28;20414;-83
2022/03/19 10:35:36;;;;;;;8.48;1.20;;;11.90;67.80;;;;;;4991018;28;20082;-83
2022/03/19 10:38:19;;;;;;;6.88;1.00;;;11.80;66.80;;;;;;4975384;28;20038;-82
2022/03/19 10:40:47;;;;;;;3.83;1.05;;;11.90;67.20;;;;;;4982511;28;20382;-80
2022/03/19 10:43:16;;;;;;;5.97;1.05;;;11.90;67.30;;;;;;4993626;28;20378;-79
2022/03/19 10:45:48;;;;;;;6.78;1.10;;;12.00;66.30;;;;;;4982802;28;20027;-81
2022/03/19 10:48:21;;;;;;;4.60;1.10;;;12.00;66.50;;;;;;4989259;28;20027;-81
2022/03/19 10:50:48;;;;;;;5.25;0.80;;;12.00;63.90;;;;;;4993195;28;20084;-81
2022/03/19 10:53:14;;;;;;;6.78;1.15;;;12.10;64.60;;;;;;4995386;28;20054;-81
2022/03/19 10:55:40;;;;;;;6.80;0.93;;;12.10;62.90;;;;;;4988020;28;20041;-81
2022/03/19 10:58:06;;;;;;;5.07;1.17;;;12.20;62.40;;;;;;4974971;28;20038;-81
2022/03/19 11:00:34;;;;;;;3.58;0.82;;;12.20;62.00;;;;;;5001005;28;20060;-81
2022/03/19 11:03:06;;;;;;;4.55;0.70;;;12.30;61.00;;;;;;5002379;28;20042;-82
2022/03/19 11:05:34;;;;;;;3.78;0.70;;;12.30;57.00;;;;;;4994990;28;20077;-83
2022/03/19 11:08:02;;;;;;;3.40;0.55;;;12.40;57.90;;;;;;4986345;28;20502;-83
2022/03/19 11:10:28;;;;;;;4.57;0.50;;;12.50;56.40;;;;;;4988547;28;20145;-83
2022/03/19 11:12:58;;;;;;;5.40;0.60;;;12.50;54.00;;;;;;4991078;28;20026;-82
2022/03/19 11:15:27;;;;;;;4.25;0.90;;;12.50;53.20;;;;;;4991650;28;20026;-82
2022/03/19 11:17:56;;;;;;;2.97;0.45;;;12.50;51.60;;;;;;5004813;28;20489;-82
2022/03/19 11:20:22;;;;;;;3.03;0.40;;;12.60;52.90;;;;;;5002795;28;20068;-82
2022/03/19 11:22:54;;;;;;;5.57;1.08;;;12.70;53.80;;;;;;4987651;28;20038;-82
2022/03/19 11:25:30;;;;;;;3.40;0.50;;;12.80;53.20;;;;;;4987383;28;20030;-82
2022/03/19 11:28:05;;;;;;;4.60;0.60;;;12.90;53.30;;;;;;4986778;28;20473;-82
2022/03/19 11:31:01;;;;;;;3.88;1.00;;;12.90;51.80;;;;;;4988895;28;20043;-82
2022/03/19 11:33:30;;;;;;;1.63;0.43;;;12.90;50.10;;;;;;4996733;28;20104;-82
2022/03/19 11:36:09;;;;;;;2.90;0.50;;;12.80;51.00;;;;;;5006669;28;20045;-82
2022/03/19 11:38:49;;;;;;;5.40;0.70;;;12.90;52.00;;;;;;4993186;28;20038;-82
2022/03/19 11:41:26;;;;;;;3.47;0.43;;;13.00;50.60;;;;;;4995154;28;20022;-83
2022/03/19 11:44:29;;;;;;;4.80;0.40;;;13.00;49.80;;;;;;4998766;28;20058;-82
2022/03/19 11:47:04;;;;;;;4.32;0.50;;;12.90;49.20;;;;;;4979258;28;20137;-83
2022/03/19 11:49:53;;;;;;;4.75;0.50;;;12.90;48.70;;;;;;4998509;28;20121;-82
2022/03/19 11:52:39;;;;;;;2.15;0.50;;;13.00;50.00;;;;;;4995357;28;20030;-83
2022/03/19 11:55:08;;;;;;;4.07;0.57;;;13.00;48.50;;;;;;4991720;28;20041;-83
2022/03/19 11:57:46;;;;;;;4.22;0.57;;;13.10;48.80;;;;;;4995881;28;20552;-82
2022/03/19 12:00:16;;;;;;;3.28;0.50;;;13.10;48.60;;;;;;4993149;28;20030;-82
2022/03/19 12:03:14;;;;;;;5.10;0.68;;;13.00;48.90;;;;;;5006999;28;20034;-82
2022/03/19 12:05:49;;;;;;;4.10;0.50;;;13.10;50.40;;;;;;5001120;28;20030;-82
2022/03/19 12:08:22;;;;;;;6.10;0.80;;;13.30;51.20;;;;;;4999319;28;20025;-82
2022/03/19 12:11:12;;;;;;;6.15;0.88;;;13.40;51.20;;;;;;4991800;28;20109;-78
2022/03/19 12:13:39;;;;;;;9.05;0.93;;;13.30;50.00;;;;;;4989514;28;20030;-82
2022/03/19 12:16:08;;;;;;;4.15;0.60;;;13.30;50.50;;;;;;4994762;28;20030;-82
2022/03/19 12:18:39;;;;;;;2.13;0.75;;;13.20;50.60;;;;;;4992612;28;20035;-82
2022/03/19 12:21:11;;;;;;;4.13;0.60;;;13.30;51.40;;;;;;5008401;28;20421;-82
2022/03/19 12:23:40;;;;;;;2.07;0.63;;;13.40;52.20;;;;;;5003089;28;20334;-82
2022/03/19 12:26:07;;;;;;;5.57;0.95;;;13.50;50.10;;;;;;4993633;28;20516;-82
2022/03/19 12:28:32;;;;;;;4.70;0.77;;;13.40;49.10;;;;;;5011284;23;20545;-88
2022/03/19 12:31:05;;;;;;;7.15;0.57;;;13.40;49.50;;;;;;4995069;28;20034;-89
2022/03/19 12:33:31;;;;;;;;;;;13.40;48.90;;;;;;4990008;28;20019;-88
2022/03/19 12:35:58;;;;;;;3.03;0.50;;;13.40;49.20;;;;;;4975673;28;19949;-88
2022/03/19 12:38:32;;;;;;;2.95;0.60;;;13.50;49.20;;;;;;4991922;28;20038;-88
2022/03/19 12:43:42;;;;;;;4.45;0.57;;;13.70;49.00;;;;;;4992918;28;20118;-89
2022/03/19 12:46:08;;;;;;;3.17;0.50;;;13.70;49.30;;;;;;4993417;28;20446;-88
2022/03/19 12:48:38;;;;;;;2.92;0.55;;;13.80;50.40;;;;;;4993770;28;20072;-89
2022/03/19 12:51:04;;;;;;;2.72;0.50;;;13.80;48.70;;;;;;4993650;28;20037;-89
2022/03/19 12:53:35;;;;;;;4.25;0.70;;;13.90;48.70;;;;;;4993828;28;20027;-89
2022/03/19 12:56:10;;;;;;;4.07;0.50;;;13.80;47.60;;;;;;4993292;28;20022;-88
2022/03/19 12:58:42;;;;;;;8.10;0.68;;;13.70;47.80;;;;;;4993004;28;20390;-89
2022/03/19 13:01:14;;;;;;;3.78;0.60;;;13.80;48.40;;;;;;4995420;28;20029;-89
2022/03/19 13:03:41;;;;;;;;;;;13.80;48.30;;;;;;4992306;28;20041;-88
2022/03/19 13:06:07;;;;;;;7.10;0.50;;;13.70;47.70;;;;;;4993821;28;19906;-89